sensor_id;sensor_type;location;lat;lon;timestamp;temperature;humidity
51825;DHT22;37879;52.986;6.282;2023-04-05T00:00:54;1.40;99.90
51825;DHT22;37879;52.986;6.282;2023-04-05T00:03:19;1.30;99.90
51825;DHT22;37879;52.986;6.282;2023-04-05T00:05:45;1.30;99.90
51825;DHT22;37879;52.986;6.282;2023-04-05T00:08:14;1.20;99.90
51825;DHT22;37879;52.986;6.282;2023-04-05T00:10:49;2.30;99.90
51825;DHT22;37879;52.986;6.282;2023-04-05T00:13:15;1.10;99.90
51825;DHT22;37879;52.986;6.282;2023-04-05T00:15:41;1.10;99.90
51825;DHT22;37879;52.986;6.282;2023-04-05T00:18:06;1.10;99.90
51825;DHT22;37879;52.986;6.282;2023-04-05T00:20:32;1.00;99.90
51825;DHT22;37879;52.986;6.282;2023-04-05T00:22:58;1.00;99.90
51825;DHT22;37879;52.986;6.282;2023-04-05T00:25:24;1.00;99.90
51825;DHT22;37879;52.986;6.282;2023-04-05T00:27:50;0.90;99.90
51825;DHT22;37879;52.986;6.282;2023-04-05T00:30:16;0.90;99.90
51825;DHT22;37879;52.986;6.282;2023-04-05T00:32:48;0.90;99.90
51825;DHT22;37879;52.986;6.282;2023-04-05T00:35:15;0.80;99.90
51825;DHT22;37879;52.986;6.282;2023-04-05T00:37:41;0.80;99.90
51825;DHT22;37879;52.986;6.282;2023-04-05T00:40:07;0.80;99.90
51825;DHT22;37879;52.986;6.282;2023-04-05T00:42:33;0.70;99.90
51825;DHT22;37879;52.986;6.282;2023-04-05T00:44:59;0.70;99.90
51825;DHT22;37879;52.986;6.282;2023-04-05T00:47:25;0.80;99.90
51825;DHT22;37879;52.986;6.282;2023-04-05T00:49:52;0.80;99.90
51825;DHT22;37879;52.986;6.282;2023-04-05T00:52:17;0.70;99.90
51825;DHT22;37879;52.986;6.282;2023-04-05T00:54:44;0.60;99.90
51825;DHT22;37879;52.986;6.282;2023-04-05T00:57:10;0.60;99.90
51825;DHT22;37879;52.986;6.282;2023-04-05T00:59:36;0.60;99.90
51825;DHT22;37879;52.986;6.282;2023-04-05T01:02:10;0.60;99.90
51825;DHT22;37879;52.986;6.282;2023-04-05T01:04:39;0.60;99.90
51825;DHT22;37879;52.986;6.282;2023-04-05T01:07:24;0.60;99.90
51825;DHT22;37879;52.986;6.282;2023-04-05T01:09:56;0.60;99.90
51825;DHT22;37879;52.986;6.282;2023-04-05T01:12:27;0.50;99.90
51825;DHT22;37879;52.986;6.282;2023-04-05T01:14:54;0.50;99.90
51825;DHT22;37879;52.986;6.282;2023-04-05T01:17:25;0.50;99.90
51825;DHT22;37879;52.986;6.282;2023-04-05T01:19:59;0.50;99.90
51825;DHT22;37879;52.986;6.282;2023-04-05T01:30:53;0.30;99.90
51825;DHT22;37879;52.986;6.282;2023-04-05T01:38:53;0.20;99.90
51825;DHT22;37879;52.986;6.282;2023-04-05T01:41:20;0.30;99.90
51825;DHT22;37879;52.986;6.282;2023-04-05T01:43:46;0.20;99.90
51825;DHT22;37879;52.986;6.282;2023-04-05T01:46:12;0.10;99.90
51825;DHT22;37879;52.986;6.282;2023-04-05T01:48:37;0.00;99.90
51825;DHT22;37879;52.986;6.282;2023-04-05T01:51:03;0.00;99.90
51825;DHT22;37879;52.986;6.282;2023-04-05T01:53:29;0.00;99.90
51825;DHT22;37879;52.986;6.282;2023-04-05T01:55:59;0.00;99.90
51825;DHT22;37879;52.986;6.282;2023-04-05T01:58:25;0.00;99.90
51825;DHT22;37879;52.986;6.282;2023-04-05T02:00:53;0.00;99.90
51825;DHT22;37879;52.986;6.282;2023-04-05T02:03:20;0.00;99.90
51825;DHT22;37879;52.986;6.282;2023-04-05T02:05:46;-0.10;99.90
51825;DHT22;37879;52.986;6.282;2023-04-05T02:08:12;0.00;99.90
51825;DHT22;37879;52.986;6.282;2023-04-05T02:10:39;0.00;99.90
51825;DHT22;37879;52.986;6.282;2023-04-05T02:13:05;0.00;99.90
51825;DHT22;37879;52.986;6.282;2023-04-05T02:15:31;0.00;99.90
51825;DHT22;37879;52.986;6.282;2023-04-05T02:17:58;0.00;99.90
51825;DHT22;37879;52.986;6.282;2023-04-05T02:20:27;-0.10;99.90
51825;DHT22;37879;52.986;6.282;2023-04-05T02:22:53;-0.10;99.90
51825;DHT22;37879;52.986;6.282;2023-04-05T02:27:45;-0.20;99.90
51825;DHT22;37879;52.986;6.282;2023-04-05T02:30:11;-0.20;99.90
51825;DHT22;37879;52.986;6.282;2023-04-05T02:32:39;-0.30;99.90
51825;DHT22;37879;52.986;6.282;2023-04-05T02:35:07;-0.30;99.90
51825;DHT22;37879;52.986;6.282;2023-04-05T02:37:33;-0.30;99.90
51825;DHT22;37879;52.986;6.282;2023-04-05T02:40:00;0.10;99.90
51825;DHT22;37879;52.986;6.282;2023-04-05T02:42:25;-0.40;99.90
51825;DHT22;37879;52.986;6.282;2023-04-05T02:44:51;-0.40;99.90
51825;DHT22;37879;52.986;6.282;2023-04-05T02:47:18;-0.40;99.90
51825;DHT22;37879;52.986;6.282;2023-04-05T02:49:49;-0.40;99.90
51825;DHT22;37879;52.986;6.282;2023-04-05T02:52:15;-0.40;99.90
51825;DHT22;37879;52.986;6.282;2023-04-05T02:54:42;-0.40;99.90
51825;DHT22;37879;52.986;6.282;2023-04-05T02:57:08;-0.40;99.90
51825;DHT22;37879;52.986;6.282;2023-04-05T02:59:37;-0.50;99.90
51825;DHT22;37879;52.986;6.282;2023-04-05T03:02:07;-0.50;99.90
51825;DHT22;37879;52.986;6.282;2023-04-05T03:04:33;-0.40;99.90
51825;DHT22;37879;52.986;6.282;2023-04-05T03:07:03;-0.50;99.90
51825;DHT22;37879;52.986;6.282;2023-04-05T03:09:29;-0.50;99.90
51825;DHT22;37879;52.986;6.282;2023-04-05T03:12:02;0.10;99.90
51825;DHT22;37879;52.986;6.282;2023-04-05T03:14:32;-0.50;99.90
51825;DHT22;37879;52.986;6.282;2023-04-05T03:16:58;-0.60;99.90
51825;DHT22;37879;52.986;6.282;2023-04-05T03:19:25;-0.60;99.90
51825;DHT22;37879;52.986;6.282;2023-04-05T03:21:52;-0.60;99.90
51825;DHT22;37879;52.986;6.282;2023-04-05T03:24:18;-0.70;99.90
51825;DHT22;37879;52.986;6.282;2023-04-05T03:26:47;-0.60;99.90
51825;DHT22;37879;52.986;6.282;2023-04-05T03:29:13;-0.70;99.90
51825;DHT22;37879;52.986;6.282;2023-04-05T03:31:40;-0.60;99.90
51825;DHT22;37879;52.986;6.282;2023-04-05T03:34:05;-0.60;99.90
51825;DHT22;37879;52.986;6.282;2023-04-05T03:36:31;-0.70;99.90
51825;DHT22;37879;52.986;6.282;2023-04-05T03:39:11;-0.10;99.90
51825;DHT22;37879;52.986;6.282;2023-04-05T03:41:37;-0.70;99.90
51825;DHT22;37879;52.986;6.282;2023-04-05T03:44:04;-0.70;99.90
51825;DHT22;37879;52.986;6.282;2023-04-05T03:46:30;-0.70;99.90
51825;DHT22;37879;52.986;6.282;2023-04-05T03:48:56;-0.90;99.90
51825;DHT22;37879;52.986;6.282;2023-04-05T03:51:22;-0.80;99.90
51825;DHT22;37879;52.986;6.282;2023-04-05T03:53:50;-0.90;99.90
51825;DHT22;37879;52.986;6.282;2023-04-05T03:58:42;-0.90;99.90
51825;DHT22;37879;52.986;6.282;2023-04-05T04:01:08;-0.90;99.90
51825;DHT22;37879;52.986;6.282;2023-04-05T04:03:34;-0.80;99.90
51825;DHT22;37879;52.986;6.282;2023-04-05T04:06:05;-0.80;99.90
51825;DHT22;37879;52.986;6.282;2023-04-05T04:08:31;-0.80;99.90
51825;DHT22;37879;52.986;6.282;2023-04-05T04:10:57;-0.80;99.90
51825;DHT22;37879;52.986;6.282;2023-04-05T04:13:23;-0.90;99.90
51825;DHT22;37879;52.986;6.282;2023-04-05T04:15:49;0.60;99.90
51825;DHT22;37879;52.986;6.282;2023-04-05T04:18:15;-1.00;99.90
51825;DHT22;37879;52.986;6.282;2023-04-05T04:20:40;-1.00;99.90
51825;DHT22;37879;52.986;6.282;2023-04-05T04:23:06;-1.00;99.90
51825;DHT22;37879;52.986;6.282;2023-04-05T04:25:37;-1.00;99.90
51825;DHT22;37879;52.986;6.282;2023-04-05T04:28:04;-1.10;99.90
51825;DHT22;37879;52.986;6.282;2023-04-05T04:30:34;-0.60;99.90
51825;DHT22;37879;52.986;6.282;2023-04-05T04:33:00;-1.20;99.90
51825;DHT22;37879;52.986;6.282;2023-04-05T04:35:30;-1.10;99.90
51825;DHT22;37879;52.986;6.282;2023-04-05T04:38:06;-1.10;99.90
51825;DHT22;37879;52.986;6.282;2023-04-05T04:40:34;-1.10;99.90
51825;DHT22;37879;52.986;6.282;2023-04-05T04:43:04;-1.10;99.90
51825;DHT22;37879;52.986;6.282;2023-04-05T04:45:30;-1.10;99.90
51825;DHT22;37879;52.986;6.282;2023-04-05T04:47:59;-1.10;99.90
51825;DHT22;37879;52.986;6.282;2023-04-05T04:50:25;-1.00;99.90
51825;DHT22;37879;52.986;6.282;2023-04-05T04:52:51;-1.10;99.90
51825;DHT22;37879;52.986;6.282;2023-04-05T04:55:19;-1.10;99.90
51825;DHT22;37879;52.986;6.282;2023-04-05T04:57:50;-1.10;99.90
51825;DHT22;37879;52.986;6.282;2023-04-05T05:00:16;-0.70;99.90
51825;DHT22;37879;52.986;6.282;2023-04-05T05:02:43;-1.10;99.90
51825;DHT22;37879;52.986;6.282;2023-04-05T05:05:10;-1.20;99.90
51825;DHT22;37879;52.986;6.282;2023-04-05T05:07:36;-1.30;99.90
51825;DHT22;37879;52.986;6.282;2023-04-05T05:10:03;-1.10;99.90
51825;DHT22;37879;52.986;6.282;2023-04-05T05:12:29;-1.20;99.90
51825;DHT22;37879;52.986;6.282;2023-04-05T05:14:56;-0.90;99.90
51825;DHT22;37879;52.986;6.282;2023-04-05T05:17:21;-1.40;99.90
51825;DHT22;37879;52.986;6.282;2023-04-05T05:19:48;-1.20;99.90
51825;DHT22;37879;52.986;6.282;2023-04-05T05:22:14;-1.20;99.90
51825;DHT22;37879;52.986;6.282;2023-04-05T05:24:39;-1.20;99.90
51825;DHT22;37879;52.986;6.282;2023-04-05T05:27:05;-0.80;99.90
51825;DHT22;37879;52.986;6.282;2023-04-05T05:29:31;-1.20;99.90
51825;DHT22;37879;52.986;6.282;2023-04-05T05:31:57;-1.10;99.90
51825;DHT22;37879;52.986;6.282;2023-04-05T05:36:49;-1.00;99.90
51825;DHT22;37879;52.986;6.282;2023-04-05T05:39:16;-1.20;99.90
51825;DHT22;37879;52.986;6.282;2023-04-05T05:41:43;-1.00;99.90
51825;DHT22;37879;52.986;6.282;2023-04-05T05:44:09;-1.00;99.90
51825;DHT22;37879;52.986;6.282;2023-04-05T05:46:34;-1.00;99.90
51825;DHT22;37879;52.986;6.282;2023-04-05T05:49:00;-0.90;99.90
51825;DHT22;37879;52.986;6.282;2023-04-05T05:51:26;-0.80;99.90
51825;DHT22;37879;52.986;6.282;2023-04-05T05:53:51;-0.70;99.90
51825;DHT22;37879;52.986;6.282;2023-04-05T05:56:17;-0.60;99.90
51825;DHT22;37879;52.986;6.282;2023-04-05T05:58:43;-0.50;99.90
51825;DHT22;37879;52.986;6.282;2023-04-05T06:01:09;-0.50;99.90
51825;DHT22;37879;52.986;6.282;2023-04-05T06:03:36;-0.40;99.90
51825;DHT22;37879;52.986;6.282;2023-04-05T06:06:03;-0.40;99.90
51825;DHT22;37879;52.986;6.282;2023-04-05T06:08:30;0.90;99.90
51825;DHT22;37879;52.986;6.282;2023-04-05T06:10:56;-0.20;99.90
51825;DHT22;37879;52.986;6.282;2023-04-05T06:13:22;-0.10;99.90
51825;DHT22;37879;52.986;6.282;2023-04-05T06:15:48;0.00;99.90
51825;DHT22;37879;52.986;6.282;2023-04-05T06:18:14;-0.60;99.90
51825;DHT22;37879;52.986;6.282;2023-04-05T06:20:42;0.20;99.90
51825;DHT22;37879;52.986;6.282;2023-04-05T06:23:12;1.30;99.90
51825;DHT22;37879;52.986;6.282;2023-04-05T06:25:38;0.30;99.90
51825;DHT22;37879;52.986;6.282;2023-04-05T06:28:05;0.30;99.90
51825;DHT22;37879;52.986;6.282;2023-04-05T06:30:31;0.50;99.90
51825;DHT22;37879;52.986;6.282;2023-04-05T06:32:58;0.50;99.90
51825;DHT22;37879;52.986;6.282;2023-04-05T06:35:25;0.70;99.90
51825;DHT22;37879;52.986;6.282;2023-04-05T06:37:51;0.70;99.90
51825;DHT22;37879;52.986;6.282;2023-04-05T06:40:18;0.70;99.90
51825;DHT22;37879;52.986;6.282;2023-04-05T06:42:43;0.90;99.90
51825;DHT22;37879;52.986;6.282;2023-04-05T06:45:10;0.80;99.90
51825;DHT22;37879;52.986;6.282;2023-04-05T06:47:37;1.00;99.90
51825;DHT22;37879;52.986;6.282;2023-04-05T06:50:04;1.50;99.90
51825;DHT22;37879;52.986;6.282;2023-04-05T06:52:32;1.20;99.90
51825;DHT22;37879;52.986;6.282;2023-04-05T06:54:58;1.30;99.90
51825;DHT22;37879;52.986;6.282;2023-04-05T06:59:51;1.40;99.90
51825;DHT22;37879;52.986;6.282;2023-04-05T07:04:43;1.60;99.90
51825;DHT22;37879;52.986;6.282;2023-04-05T07:07:08;1.60;99.90
51825;DHT22;37879;52.986;6.282;2023-04-05T07:09:35;1.70;99.90
51825;DHT22;37879;52.986;6.282;2023-04-05T07:12:03;1.80;99.90
51825;DHT22;37879;52.986;6.282;2023-04-05T07:14:30;1.90;99.90
51825;DHT22;37879;52.986;6.282;2023-04-05T07:16:55;1.90;99.90
51825;DHT22;37879;52.986;6.282;2023-04-05T07:19:21;2.00;99.90
51825;DHT22;37879;52.986;6.282;2023-04-05T07:21:48;2.10;99.90
51825;DHT22;37879;52.986;6.282;2023-04-05T07:24:13;2.20;99.90
51825;DHT22;37879;52.986;6.282;2023-04-05T07:26:39;2.30;99.90
51825;DHT22;37879;52.986;6.282;2023-04-05T07:29:06;2.40;99.90
51825;DHT22;37879;52.986;6.282;2023-04-05T07:31:33;2.40;99.90
51825;DHT22;37879;52.986;6.282;2023-04-05T07:34:00;3.00;99.90
51825;DHT22;37879;52.986;6.282;2023-04-05T07:36:26;2.60;99.90
51825;DHT22;37879;52.986;6.282;2023-04-05T07:38:53;2.60;99.90
51825;DHT22;37879;52.986;6.282;2023-04-05T07:41:19;2.70;99.90
51825;DHT22;37879;52.986;6.282;2023-04-05T07:43:45;2.70;99.90
51825;DHT22;37879;52.986;6.282;2023-04-05T07:46:11;2.80;99.90
51825;DHT22;37879;52.986;6.282;2023-04-05T07:48:37;2.90;99.90
51825;DHT22;37879;52.986;6.282;2023-04-05T07:51:06;1.50;99.90
51825;DHT22;37879;52.986;6.282;2023-04-05T07:53:33;3.10;99.90
51825;DHT22;37879;52.986;6.282;2023-04-05T07:56:06;3.20;99.90
51825;DHT22;37879;52.986;6.282;2023-04-05T07:58:33;3.30;99.90
51825;DHT22;37879;52.986;6.282;2023-04-05T08:01:03;3.40;99.90
51825;DHT22;37879;52.986;6.282;2023-04-05T08:03:29;5.40;99.90
51825;DHT22;37879;52.986;6.282;2023-04-05T08:05:56;3.70;99.90
51825;DHT22;37879;52.986;6.282;2023-04-05T08:08:23;4.30;99.90
51825;DHT22;37879;52.986;6.282;2023-04-05T08:10:49;3.80;99.90
51825;DHT22;37879;52.986;6.282;2023-04-05T08:13:15;4.00;99.90
51825;DHT22;37879;52.986;6.282;2023-04-05T08:15:41;4.00;99.90
51825;DHT22;37879;52.986;6.282;2023-04-05T08:18:06;4.10;99.90
51825;DHT22;37879;52.986;6.282;2023-04-05T08:20:32;4.20;99.90
51825;DHT22;37879;52.986;6.282;2023-04-05T08:23:04;4.20;99.90
51825;DHT22;37879;52.986;6.282;2023-04-05T08:25:29;4.40;99.90
51825;DHT22;37879;52.986;6.282;2023-04-05T08:27:55;4.50;99.90
51825;DHT22;37879;52.986;6.282;2023-04-05T08:30:21;4.50;99.90
51825;DHT22;37879;52.986;6.282;2023-04-05T08:32:48;5.90;99.90
51825;DHT22;37879;52.986;6.282;2023-04-05T08:35:14;4.70;99.90
51825;DHT22;37879;52.986;6.282;2023-04-05T08:37:39;4.80;99.90
51825;DHT22;37879;52.986;6.282;2023-04-05T08:40:06;4.90;99.90
51825;DHT22;37879;52.986;6.282;2023-04-05T08:42:41;5.00;99.90
51825;DHT22;37879;52.986;6.282;2023-04-05T08:45:13;5.00;99.90
51825;DHT22;37879;52.986;6.282;2023-04-05T08:47:41;5.10;99.90
51825;DHT22;37879;52.986;6.282;2023-04-05T08:50:09;5.40;99.90
51825;DHT22;37879;52.986;6.282;2023-04-05T08:52:37;5.30;99.90
51825;DHT22;37879;52.986;6.282;2023-04-05T08:55:07;5.40;99.90
51825;DHT22;37879;52.986;6.282;2023-04-05T08:57:36;5.50;99.90
51825;DHT22;37879;52.986;6.282;2023-04-05T09:00:05;5.50;99.90
51825;DHT22;37879;52.986;6.282;2023-04-05T09:02:32;5.50;99.90
51825;DHT22;37879;52.986;6.282;2023-04-05T09:04:59;5.60;99.90
51825;DHT22;37879;52.986;6.282;2023-04-05T09:07:28;5.80;99.90
51825;DHT22;37879;52.986;6.282;2023-04-05T09:09:56;5.80;99.90
51825;DHT22;37879;52.986;6.282;2023-04-05T09:12:24;5.90;99.90
51825;DHT22;37879;52.986;6.282;2023-04-05T09:14:51;6.30;99.90
51825;DHT22;37879;52.986;6.282;2023-04-05T09:17:17;6.10;99.90
51825;DHT22;37879;52.986;6.282;2023-04-05T09:19:46;6.20;99.90
51825;DHT22;37879;52.986;6.282;2023-04-05T09:22:14;6.20;99.90
51825;DHT22;37879;52.986;6.282;2023-04-05T09:24:44;6.30;99.90
51825;DHT22;37879;52.986;6.282;2023-04-05T09:27:11;6.50;99.90
51825;DHT22;37879;52.986;6.282;2023-04-05T09:29:42;6.40;99.90
51825;DHT22;37879;52.986;6.282;2023-04-05T09:32:09;6.40;99.90
51825;DHT22;37879;52.986;6.282;2023-04-05T09:34:35;6.40;99.90
51825;DHT22;37879;52.986;6.282;2023-04-05T09:37:03;6.40;99.90
51825;DHT22;37879;52.986;6.282;2023-04-05T09:39:36;7.40;99.90
51825;DHT22;37879;52.986;6.282;2023-04-05T09:42:10;6.50;99.90
51825;DHT22;37879;52.986;6.282;2023-04-05T09:44:55;6.70;99.90
51825;DHT22;37879;52.986;6.282;2023-04-05T09:47:25;6.80;99.90
51825;DHT22;37879;52.986;6.282;2023-04-05T09:49:58;6.80;99.90
51825;DHT22;37879;52.986;6.282;2023-04-05T09:52:26;7.10;99.90
51825;DHT22;37879;52.986;6.282;2023-04-05T09:54:53;7.70;99.90
51825;DHT22;37879;52.986;6.282;2023-04-05T09:57:26;7.40;99.90
51825;DHT22;37879;52.986;6.282;2023-04-05T09:59:52;7.50;99.90
51825;DHT22;37879;52.986;6.282;2023-04-05T10:02:19;7.50;99.90
51825;DHT22;37879;52.986;6.282;2023-04-05T10:04:46;7.50;99.90
51825;DHT22;37879;52.986;6.282;2023-04-05T10:07:17;7.60;99.90
51825;DHT22;37879;52.986;6.282;2023-04-05T10:09:47;7.60;99.90
51825;DHT22;37879;52.986;6.282;2023-04-05T10:12:23;7.70;99.90
51825;DHT22;37879;52.986;6.282;2023-04-05T10:14:50;7.80;99.90
51825;DHT22;37879;52.986;6.282;2023-04-05T10:17:23;7.90;99.90
51825;DHT22;37879;52.986;6.282;2023-04-05T10:20:01;8.20;99.90
51825;DHT22;37879;52.986;6.282;2023-04-05T10:27:54;8.10;99.90
51825;DHT22;37879;52.986;6.282;2023-04-05T10:30:30;8.20;99.90
51825;DHT22;37879;52.986;6.282;2023-04-05T10:41:47;8.40;99.90
51825;DHT22;37879;52.986;6.282;2023-04-05T10:44:14;8.80;99.90
51825;DHT22;37879;52.986;6.282;2023-04-05T10:46:40;8.40;99.90
51825;DHT22;37879;52.986;6.282;2023-04-05T10:51:42;8.40;99.90
51825;DHT22;37879;52.986;6.282;2023-04-05T10:54:08;8.50;99.90
51825;DHT22;37879;52.986;6.282;2023-04-05T10:56:36;8.80;99.90
51825;DHT22;37879;52.986;6.282;2023-04-05T10:59:03;8.70;99.90
51825;DHT22;37879;52.986;6.282;2023-04-05T11:01:30;9.20;99.90
51825;DHT22;37879;52.986;6.282;2023-04-05T11:03:55;8.90;99.90
51825;DHT22;37879;52.986;6.282;2023-04-05T11:06:39;8.90;99.90
51825;DHT22;37879;52.986;6.282;2023-04-05T11:09:19;8.80;99.90
51825;DHT22;37879;52.986;6.282;2023-04-05T11:11:50;8.80;99.90
51825;DHT22;37879;52.986;6.282;2023-04-05T11:16:58;9.00;99.90
51825;DHT22;37879;52.986;6.282;2023-04-05T11:22:12;9.10;99.90
51825;DHT22;37879;52.986;6.282;2023-04-05T11:24:56;9.10;99.90
51825;DHT22;37879;52.986;6.282;2023-04-05T11:27:30;9.60;99.90
51825;DHT22;37879;52.986;6.282;2023-04-05T11:29:58;9.30;99.90
51825;DHT22;37879;52.986;6.282;2023-04-05T11:32:40;9.30;99.90
51825;DHT22;37879;52.986;6.282;2023-04-05T11:35:15;9.40;99.90
51825;DHT22;37879;52.986;6.282;2023-04-05T11:38:20;9.50;99.40
51825;DHT22;37879;52.986;6.282;2023-04-05T11:40:46;9.60;99.90
51825;DHT22;37879;52.986;6.282;2023-04-05T11:43:12;9.60;99.60
51825;DHT22;37879;52.986;6.282;2023-04-05T11:45:39;9.60;99.90
51825;DHT22;37879;52.986;6.282;2023-04-05T11:48:11;9.60;99.60
51825;DHT22;37879;52.986;6.282;2023-04-05T11:50:38;9.70;99.90
51825;DHT22;37879;52.986;6.282;2023-04-05T11:53:24;9.80;99.90
51825;DHT22;37879;52.986;6.282;2023-04-05T11:55:50;10.00;98.40
51825;DHT22;37879;52.986;6.282;2023-04-05T11:58:23;10.00;99.70
51825;DHT22;37879;52.986;6.282;2023-04-05T12:01:03;10.00;98.60
51825;DHT22;37879;52.986;6.282;2023-04-05T12:03:29;10.10;98.70
51825;DHT22;37879;52.986;6.282;2023-04-05T12:05:57;10.00;98.10
51825;DHT22;37879;52.986;6.282;2023-04-05T12:11:07;10.10;99.40
51825;DHT22;37879;52.986;6.282;2023-04-05T12:13:33;10.20;99.90
51825;DHT22;37879;52.986;6.282;2023-04-05T12:16:04;10.30;98.70
51825;DHT22;37879;52.986;6.282;2023-04-05T12:18:34;10.30;98.10
51825;DHT22;37879;52.986;6.282;2023-04-05T12:21:02;10.70;99.10
51825;DHT22;37879;52.986;6.282;2023-04-05T12:23:28;10.40;98.20
51825;DHT22;37879;52.986;6.282;2023-04-05T12:25:56;10.40;98.00
51825;DHT22;37879;52.986;6.282;2023-04-05T12:28:22;10.50;98.40
51825;DHT22;37879;52.986;6.282;2023-04-05T12:33:15;10.50;97.40
51825;DHT22;37879;52.986;6.282;2023-04-05T12:35:50;10.50;97.70
51825;DHT22;37879;52.986;6.282;2023-04-05T12:38:16;10.50;95.90
51825;DHT22;37879;52.986;6.282;2023-04-05T12:40:42;10.70;96.50
51825;DHT22;37879;52.986;6.282;2023-04-05T12:43:09;10.40;97.20
51825;DHT22;37879;52.986;6.282;2023-04-05T12:45:35;10.50;97.90
51825;DHT22;37879;52.986;6.282;2023-04-05T12:50:44;10.70;97.60
51825;DHT22;37879;52.986;6.282;2023-04-05T12:53:25;10.90;97.80
51825;DHT22;37879;52.986;6.282;2023-04-05T12:55:56;10.90;96.50
51825;DHT22;37879;52.986;6.282;2023-04-05T12:58:36;10.50;96.60
51825;DHT22;37879;52.986;6.282;2023-04-05T13:01:02;11.00;95.10
51825;DHT22;37879;52.986;6.282;2023-04-05T13:03:28;10.90;95.90
51825;DHT22;37879;52.986;6.282;2023-04-05T13:05:54;10.90;95.70
51825;DHT22;37879;52.986;6.282;2023-04-05T13:08:20;10.90;96.60
51825;DHT22;37879;52.986;6.282;2023-04-05T13:10:47;11.10;96.90
51825;DHT22;37879;52.986;6.282;2023-04-05T13:13:13;11.30;97.90
51825;DHT22;37879;52.986;6.282;2023-04-05T13:15:39;11.30;96.10
51825;DHT22;37879;52.986;6.282;2023-04-05T13:18:05;11.30;95.50
51825;DHT22;37879;52.986;6.282;2023-04-05T13:20:31;11.40;95.50
51825;DHT22;37879;52.986;6.282;2023-04-05T13:22:57;11.40;94.90
51825;DHT22;37879;52.986;6.282;2023-04-05T13:25:23;11.40;95.00
51825;DHT22;37879;52.986;6.282;2023-04-05T13:27:48;11.30;94.00
51825;DHT22;37879;52.986;6.282;2023-04-05T13:30:15;11.20;91.60
51825;DHT22;37879;52.986;6.282;2023-04-05T13:32:41;11.00;93.50
51825;DHT22;37879;52.986;6.282;2023-04-05T13:35:07;10.90;92.70
51825;DHT22;37879;52.986;6.282;2023-04-05T13:37:33;10.80;93.30
51825;DHT22;37879;52.986;6.282;2023-04-05T13:39:59;10.70;92.90
51825;DHT22;37879;52.986;6.282;2023-04-05T13:42:24;10.90;93.80
51825;DHT22;37879;52.986;6.282;2023-04-05T13:44:50;10.70;93.50
51825;DHT22;37879;52.986;6.282;2023-04-05T13:47:16;10.90;93.80
51825;DHT22;37879;52.986;6.282;2023-04-05T13:49:42;11.40;94.00
51825;DHT22;37879;52.986;6.282;2023-04-05T13:52:08;11.00;92.30
51825;DHT22;37879;52.986;6.282;2023-04-05T13:54:34;11.00;92.40
51825;DHT22;37879;52.986;6.282;2023-04-05T13:57:00;11.00;93.80
51825;DHT22;37879;52.986;6.282;2023-04-05T13:59:25;11.10;91.80
51825;DHT22;37879;52.986;6.282;2023-04-05T14:01:51;11.00;93.30
51825;DHT22;37879;52.986;6.282;2023-04-05T14:04:17;11.00;93.50
51825;DHT22;37879;52.986;6.282;2023-04-05T14:06:43;11.10;92.50
51825;DHT22;37879;52.986;6.282;2023-04-05T14:09:09;11.30;92.50
51825;DHT22;37879;52.986;6.282;2023-04-05T14:11:36;11.10;91.80
51825;DHT22;37879;52.986;6.282;2023-04-05T14:14:02;11.00;90.80
51825;DHT22;37879;52.986;6.282;2023-04-05T14:16:28;11.70;90.60
51825;DHT22;37879;52.986;6.282;2023-04-05T14:18:54;10.90;91.10
51825;DHT22;37879;52.986;6.282;2023-04-05T14:21:21;10.90;92.20
51825;DHT22;37879;52.986;6.282;2023-04-05T14:23:46;11.00;92.70
51825;DHT22;37879;52.986;6.282;2023-04-05T14:26:15;11.10;93.20
51825;DHT22;37879;52.986;6.282;2023-04-05T14:28:41;11.20;93.20
51825;DHT22;37879;52.986;6.282;2023-04-05T14:31:06;11.30;93.00
51825;DHT22;37879;52.986;6.282;2023-04-05T14:33:32;11.40;93.00
51825;DHT22;37879;52.986;6.282;2023-04-05T14:35:58;11.30;92.90
51825;DHT22;37879;52.986;6.282;2023-04-05T14:38:23;11.40;91.80
51825;DHT22;37879;52.986;6.282;2023-04-05T14:40:49;11.30;91.90
51825;DHT22;37879;52.986;6.282;2023-04-05T14:43:15;11.30;92.00
51825;DHT22;37879;52.986;6.282;2023-04-05T14:45:41;11.30;93.40
51825;DHT22;37879;52.986;6.282;2023-04-05T14:48:07;11.20;92.80
51825;DHT22;37879;52.986;6.282;2023-04-05T14:50:32;11.10;92.10
51825;DHT22;37879;52.986;6.282;2023-04-05T14:53:01;11.20;91.60
51825;DHT22;37879;52.986;6.282;2023-04-05T14:55:27;11.00;93.00
51825;DHT22;37879;52.986;6.282;2023-04-05T14:57:53;11.10;91.50
51825;DHT22;37879;52.986;6.282;2023-04-05T15:00:19;11.20;92.10
51825;DHT22;37879;52.986;6.282;2023-04-05T15:02:45;10.80;91.40
51825;DHT22;37879;52.986;6.282;2023-04-05T15:05:11;10.80;91.60
51825;DHT22;37879;52.986;6.282;2023-04-05T15:07:37;11.60;91.50
51825;DHT22;37879;52.986;6.282;2023-04-05T15:10:03;10.60;92.00
51825;DHT22;37879;52.986;6.282;2023-04-05T15:12:30;10.60;91.50
51825;DHT22;37879;52.986;6.282;2023-04-05T15:14:56;10.60;92.20
51825;DHT22;37879;52.986;6.282;2023-04-05T15:17:22;11.30;92.60
51825;DHT22;37879;52.986;6.282;2023-04-05T15:19:47;10.80;93.40
51825;DHT22;37879;52.986;6.282;2023-04-05T15:22:13;10.90;91.80
51825;DHT22;37879;52.986;6.282;2023-04-05T15:24:40;10.90;91.30
51825;DHT22;37879;52.986;6.282;2023-04-05T15:27:07;10.90;91.40
51825;DHT22;37879;52.986;6.282;2023-04-05T15:29:33;10.90;92.60
51825;DHT22;37879;52.986;6.282;2023-04-05T15:31:59;10.80;92.60
51825;DHT22;37879;52.986;6.282;2023-04-05T15:34:26;10.90;93.10
51825;DHT22;37879;52.986;6.282;2023-04-05T15:36:52;11.00;93.40
51825;DHT22;37879;52.986;6.282;2023-04-05T15:39:19;11.70;93.70
51825;DHT22;37879;52.986;6.282;2023-04-05T15:41:45;11.30;93.60
51825;DHT22;37879;52.986;6.282;2023-04-05T15:44:15;11.40;93.80
51825;DHT22;37879;52.986;6.282;2023-04-05T15:46:40;11.40;93.40
51825;DHT22;37879;52.986;6.282;2023-04-05T15:49:07;11.30;91.80
51825;DHT22;37879;52.986;6.282;2023-04-05T15:51:34;11.30;92.60
51825;DHT22;37879;52.986;6.282;2023-04-05T15:54:00;11.20;92.50
51825;DHT22;37879;52.986;6.282;2023-04-05T15:56:26;11.20;92.40
51825;DHT22;37879;52.986;6.282;2023-04-05T15:58:52;11.10;92.70
51825;DHT22;37879;52.986;6.282;2023-04-05T16:01:17;11.10;92.60
51825;DHT22;37879;52.986;6.282;2023-04-05T16:03:43;11.00;93.20
51825;DHT22;37879;52.986;6.282;2023-04-05T16:06:09;10.90;92.40
51825;DHT22;37879;52.986;6.282;2023-04-05T16:08:35;10.90;92.20
51825;DHT22;37879;52.986;6.282;2023-04-05T16:11:01;10.80;92.50
51825;DHT22;37879;52.986;6.282;2023-04-05T16:13:27;11.20;92.60
51825;DHT22;37879;52.986;6.282;2023-04-05T16:15:53;10.80;93.00
51825;DHT22;37879;52.986;6.282;2023-04-05T16:18:18;10.90;92.50
51825;DHT22;37879;52.986;6.282;2023-04-05T16:20:46;10.70;92.40
51825;DHT22;37879;52.986;6.282;2023-04-05T16:23:12;10.60;93.00
51825;DHT22;37879;52.986;6.282;2023-04-05T16:25:38;10.60;93.30
51825;DHT22;37879;52.986;6.282;2023-04-05T16:28:04;10.60;92.50
51825;DHT22;37879;52.986;6.282;2023-04-05T16:30:33;10.90;92.40
51825;DHT22;37879;52.986;6.282;2023-04-05T16:32:59;10.50;92.40
51825;DHT22;37879;52.986;6.282;2023-04-05T16:35:25;10.40;91.90